sensor_id;sensor_type;location;lat;lon;timestamp;P1;durP1;ratioP1;P2;durP2;ratioP2
79074;SDS011;68476;42.710;23.388;2023-12-29T00:01:14;71.55;;;39.35;;
79074;SDS011;68476;42.710;23.388;2023-12-29T00:03:40;74.63;;;40.58;;
79074;SDS011;68476;42.710;23.388;2023-12-29T00:06:06;73.18;;;40.10;;
79074;SDS011;68476;42.710;23.388;2023-12-29T00:08:31;82.78;;;42.22;;
79074;SDS011;68476;42.710;23.388;2023-12-29T00:10:57;73.75;;;40.20;;
79074;SDS011;68476;42.710;23.388;2023-12-29T00:13:22;67.43;;;38.58;;
79074;SDS011;68476;42.710;23.388;2023-12-29T00:15:52;64.82;;;35.38;;
79074;SDS011;68476;42.710;23.388;2023-12-29T00:18:19;70.53;;;36.97;;
79074;SDS011;68476;42.710;23.388;2023-12-29T00:20:44;67.82;;;36.83;;
79074;SDS011;68476;42.710;23.388;2023-12-29T00:23:10;67.93;;;36.85;;
79074;SDS011;68476;42.710;23.388;2023-12-29T00:25:35;64.82;;;33.83;;
79074;SDS011;68476;42.710;23.388;2023-12-29T00:28:02;54.40;;;31.90;;
79074;SDS011;68476;42.710;23.388;2023-12-29T00:30:28;61.78;;;34.35;;
79074;SDS011;68476;42.710;23.388;2023-12-29T00:32:54;67.70;;;35.33;;
79074;SDS011;68476;42.710;23.388;2023-12-29T00:35:20;70.10;;;34.58;;
79074;SDS011;68476;42.710;23.388;2023-12-29T00:37:46;63.92;;;34.75;;
79074;SDS011;68476;42.710;23.388;2023-12-29T00:40:12;61.78;;;33.05;;
79074;SDS011;68476;42.710;23.388;2023-12-29T00:42:37;62.08;;;36.45;;
79074;SDS011;68476;42.710;23.388;2023-12-29T00:45:03;72.57;;;37.95;;
79074;SDS011;68476;42.710;23.388;2023-12-29T00:47:30;65.70;;;31.55;;
79074;SDS011;68476;42.710;23.388;2023-12-29T00:49:56;61.03;;;32.45;;
79074;SDS011;68476;42.710;23.388;2023-12-29T00:52:21;54.47;;;30.08;;
79074;SDS011;68476;42.710;23.388;2023-12-29T00:54:47;62.50;;;31.35;;
79074;SDS011;68476;42.710;23.388;2023-12-29T00:57:12;57.35;;;31.15;;
79074;SDS011;68476;42.710;23.388;2023-12-29T00:59:38;56.85;;;29.42;;
79074;SDS011;68476;42.710;23.388;2023-12-29T01:02:05;57.38;;;30.67;;
79074;SDS011;68476;42.710;23.388;2023-12-29T01:04:31;65.47;;;37.03;;
79074;SDS011;68476;42.710;23.388;2023-12-29T01:06:57;68.53;;;38.03;;
79074;SDS011;68476;42.710;23.388;2023-12-29T01:09:22;73.30;;;38.92;;
79074;SDS011;68476;42.710;23.388;2023-12-29T01:11:48;70.07;;;39.38;;
79074;SDS011;68476;42.710;23.388;2023-12-29T01:14:13;66.10;;;37.05;;
79074;SDS011;68476;42.710;23.388;2023-12-29T01:16:39;69.97;;;37.33;;
79074;SDS011;68476;42.710;23.388;2023-12-29T01:19:06;72.63;;;40.65;;
79074;SDS011;68476;42.710;23.388;2023-12-29T01:21:32;68.55;;;38.38;;
79074;SDS011;68476;42.710;23.388;2023-12-29T01:23:59;57.13;;;32.45;;
79074;SDS011;68476;42.710;23.388;2023-12-29T01:26:26;60.00;;;34.75;;
79074;SDS011;68476;42.710;23.388;2023-12-29T01:28:51;60.83;;;33.80;;
79074;SDS011;68476;42.710;23.388;2023-12-29T01:31:17;61.47;;;35.00;;
79074;SDS011;68476;42.710;23.388;2023-12-29T01:33:43;59.63;;;31.13;;
79074;SDS011;68476;42.710;23.388;2023-12-29T01:36:08;46.88;;;27.80;;
79074;SDS011;68476;42.710;23.388;2023-12-29T01:38:34;40.33;;;23.90;;
79074;SDS011;68476;42.710;23.388;2023-12-29T01:40:59;60.05;;;32.15;;
79074;SDS011;68476;42.710;23.388;2023-12-29T01:43:25;51.10;;;30.52;;
79074;SDS011;68476;42.710;23.388;2023-12-29T01:45:50;68.00;;;38.22;;
79074;SDS011;68476;42.710;23.388;2023-12-29T01:48:16;58.72;;;31.33;;
79074;SDS011;68476;42.710;23.388;2023-12-29T01:50:42;37.60;;;21.73;;
79074;SDS011;68476;42.710;23.388;2023-12-29T01:53:09;70.47;;;35.33;;
79074;SDS011;68476;42.710;23.388;2023-12-29T01:55:36;56.33;;;30.92;;
79074;SDS011;68476;42.710;23.388;2023-12-29T01:58:02;57.10;;;31.02;;
79074;SDS011;68476;42.710;23.388;2023-12-29T02:00:28;54.30;;;28.83;;
79074;SDS011;68476;42.710;23.388;2023-12-29T02:02:54;56.08;;;31.17;;
79074;SDS011;68476;42.710;23.388;2023-12-29T02:05:20;61.53;;;31.75;;
79074;SDS011;68476;42.710;23.388;2023-12-29T02:10:16;42.13;;;24.70;;
79074;SDS011;68476;42.710;23.388;2023-12-29T02:12:43;57.53;;;26.08;;
79074;SDS011;68476;42.710;23.388;2023-12-29T02:15:11;52.10;;;27.88;;
79074;SDS011;68476;42.710;23.388;2023-12-29T02:17:40;49.55;;;27.23;;
79074;SDS011;68476;42.710;23.388;2023-12-29T02:20:10;52.25;;;28.33;;
79074;SDS011;68476;42.710;23.388;2023-12-29T02:22:36;50.53;;;28.65;;
79074;SDS011;68476;42.710;23.388;2023-12-29T02:25:02;53.65;;;31.77;;
79074;SDS011;68476;42.710;23.388;2023-12-29T02:30:21;53.97;;;32.25;;
79074;SDS011;68476;42.710;23.388;2023-12-29T02:32:54;52.15;;;30.33;;
79074;SDS011;68476;42.710;23.388;2023-12-29T02:35:28;55.40;;;32.28;;
79074;SDS011;68476;42.710;23.388;2023-12-29T02:37:57;59.03;;;30.90;;
79074;SDS011;68476;42.710;23.388;2023-12-29T02:40:23;54.22;;;30.48;;
79074;SDS011;68476;42.710;23.388;2023-12-29T02:42:50;55.45;;;29.60;;
79074;SDS011;68476;42.710;23.388;2023-12-29T02:45:16;62.65;;;32.50;;
79074;SDS011;68476;42.710;23.388;2023-12-29T02:47:42;52.83;;;28.45;;
79074;SDS011;68476;42.710;23.388;2023-12-29T02:50:09;48.10;;;27.10;;
79074;SDS011;68476;42.710;23.388;2023-12-29T02:52:35;49.50;;;28.30;;
79074;SDS011;68476;42.710;23.388;2023-12-29T02:55:00;49.72;;;28.30;;
79074;SDS011;68476;42.710;23.388;2023-12-29T02:57:26;56.00;;;30.73;;
79074;SDS011;68476;42.710;23.388;2023-12-29T02:59:51;47.33;;;29.02;;
79074;SDS011;68476;42.710;23.388;2023-12-29T03:02:17;49.78;;;25.90;;
79074;SDS011;68476;42.710;23.388;2023-12-29T03:04:42;51.50;;;28.45;;
79074;SDS011;68476;42.710;23.388;2023-12-29T03:07:09;47.38;;;25.63;;
79074;SDS011;68476;42.710;23.388;2023-12-29T03:09:34;45.67;;;27.65;;
79074;SDS011;68476;42.710;23.388;2023-12-29T03:12:00;57.45;;;30.25;;
79074;SDS011;68476;42.710;23.388;2023-12-29T03:14:25;50.78;;;29.05;;
79074;SDS011;68476;42.710;23.388;2023-12-29T03:16:51;49.75;;;28.08;;
79074;SDS011;68476;42.710;23.388;2023-12-29T03:19:16;60.90;;;29.38;;
79074;SDS011;68476;42.710;23.388;2023-12-29T03:21:42;50.03;;;27.73;;
79074;SDS011;68476;42.710;23.388;2023-12-29T03:24:07;47.92;;;26.00;;
79074;SDS011;68476;42.710;23.388;2023-12-29T03:26:33;45.15;;;25.38;;
79074;SDS011;68476;42.710;23.388;2023-12-29T03:28:58;51.53;;;27.05;;
79074;SDS011;68476;42.710;23.388;2023-12-29T03:31:24;48.15;;;26.67;;
79074;SDS011;68476;42.710;23.388;2023-12-29T03:33:49;48.47;;;25.73;;
79074;SDS011;68476;42.710;23.388;2023-12-29T03:36:15;43.63;;;25.10;;
79074;SDS011;68476;42.710;23.388;2023-12-29T03:38:40;50.35;;;28.23;;
79074;SDS011;68476;42.710;23.388;2023-12-29T03:41:06;51.25;;;27.38;;
79074;SDS011;68476;42.710;23.388;2023-12-29T03:43:32;50.13;;;25.88;;
79074;SDS011;68476;42.710;23.388;2023-12-29T03:45:57;48.42;;;25.30;;
79074;SDS011;68476;42.710;23.388;2023-12-29T03:48:23;51.58;;;26.85;;
79074;SDS011;68476;42.710;23.388;2023-12-29T03:50:49;48.25;;;27.33;;
79074;SDS011;68476;42.710;23.388;2023-12-29T03:53:14;42.63;;;25.33;;
79074;SDS011;68476;42.710;23.388;2023-12-29T03:55:40;52.00;;;27.80;;
79074;SDS011;68476;42.710;23.388;2023-12-29T03:58:06;48.78;;;26.70;;
79074;SDS011;68476;42.710;23.388;2023-12-29T04:00:32;48.83;;;27.17;;
79074;SDS011;68476;42.710;23.388;2023-12-29T04:02:57;48.10;;;26.80;;
79074;SDS011;68476;42.710;23.388;2023-12-29T04:05:23;53.65;;;29.20;;
79074;SDS011;68476;42.710;23.388;2023-12-29T04:07:48;42.75;;;24.52;;
79074;SDS011;68476;42.710;23.388;2023-12-29T04:10:14;42.28;;;23.23;;
79074;SDS011;68476;42.710;23.388;2023-12-29T04:12:39;42.90;;;23.85;;
79074;SDS011;68476;42.710;23.388;2023-12-29T04:15:05;39.83;;;23.13;;
79074;SDS011;68476;42.710;23.388;2023-12-29T04:17:31;44.45;;;23.30;;
79074;SDS011;68476;42.710;23.388;2023-12-29T04:19:56;42.22;;;23.40;;
79074;SDS011;68476;42.710;23.388;2023-12-29T04:22:22;40.83;;;22.52;;
79074;SDS011;68476;42.710;23.388;2023-12-29T04:24:47;43.85;;;22.65;;
79074;SDS011;68476;42.710;23.388;2023-12-29T04:27:13;44.65;;;25.27;;
79074;SDS011;68476;42.710;23.388;2023-12-29T04:29:40;43.75;;;23.20;;
79074;SDS011;68476;42.710;23.388;2023-12-29T04:32:05;39.03;;;21.05;;
79074;SDS011;68476;42.710;23.388;2023-12-29T04:34:31;42.20;;;23.65;;
79074;SDS011;68476;42.710;23.388;2023-12-29T04:36:56;35.90;;;21.52;;
79074;SDS011;68476;42.710;23.388;2023-12-29T04:39:22;39.63;;;21.13;;
79074;SDS011;68476;42.710;23.388;2023-12-29T04:41:47;33.75;;;20.88;;
79074;SDS011;68476;42.710;23.388;2023-12-29T04:44:13;40.83;;;22.63;;
79074;SDS011;68476;42.710;23.388;2023-12-29T04:46:38;43.35;;;22.50;;
79074;SDS011;68476;42.710;23.388;2023-12-29T04:49:04;38.15;;;21.20;;
79074;SDS011;68476;42.710;23.388;2023-12-29T04:51:29;42.17;;;22.55;;
79074;SDS011;68476;42.710;23.388;2023-12-29T04:53:55;34.88;;;20.30;;
79074;SDS011;68476;42.710;23.388;2023-12-29T04:56:20;37.30;;;21.70;;
79074;SDS011;68476;42.710;23.388;2023-12-29T04:58:46;35.58;;;20.27;;
79074;SDS011;68476;42.710;23.388;2023-12-29T05:01:11;38.28;;;21.70;;
79074;SDS011;68476;42.710;23.388;2023-12-29T05:03:37;36.72;;;21.23;;
79074;SDS011;68476;42.710;23.388;2023-12-29T05:06:02;37.53;;;20.48;;
79074;SDS011;68476;42.710;23.388;2023-12-29T05:08:28;36.58;;;20.25;;
79074;SDS011;68476;42.710;23.388;2023-12-29T05:10:53;33.60;;;20.45;;
79074;SDS011;68476;42.710;23.388;2023-12-29T05:13:20;32.17;;;19.83;;
79074;SDS011;68476;42.710;23.388;2023-12-29T05:15:46;37.35;;;20.63;;
79074;SDS011;68476;42.710;23.388;2023-12-29T05:18:11;34.45;;;18.35;;
79074;SDS011;68476;42.710;23.388;2023-12-29T05:20:37;29.60;;;18.35;;
79074;SDS011;68476;42.710;23.388;2023-12-29T05:23:02;39.67;;;21.00;;
79074;SDS011;68476;42.710;23.388;2023-12-29T05:25:28;32.60;;;18.88;;
79074;SDS011;68476;42.710;23.388;2023-12-29T05:27:54;34.35;;;18.98;;
79074;SDS011;68476;42.710;23.388;2023-12-29T05:30:19;38.45;;;20.42;;
79074;SDS011;68476;42.710;23.388;2023-12-29T05:32:45;47.83;;;22.42;;
79074;SDS011;68476;42.710;23.388;2023-12-29T05:35:10;37.45;;;20.95;;
79074;SDS011;68476;42.710;23.388;2023-12-29T05:37:35;38.35;;;21.83;;
79074;SDS011;68476;42.710;23.388;2023-12-29T05:40:01;35.97;;;21.02;;
79074;SDS011;68476;42.710;23.388;2023-12-29T05:42:27;37.78;;;20.35;;
79074;SDS011;68476;42.710;23.388;2023-12-29T05:44:52;46.05;;;22.25;;
79074;SDS011;68476;42.710;23.388;2023-12-29T05:47:18;40.58;;;21.95;;
79074;SDS011;68476;42.710;23.388;2023-12-29T05:49:43;31.75;;;17.80;;
79074;SDS011;68476;42.710;23.388;2023-12-29T05:52:09;36.25;;;17.73;;
79074;SDS011;68476;42.710;23.388;2023-12-29T05:54:35;41.53;;;22.20;;
79074;SDS011;68476;42.710;23.388;2023-12-29T05:57:00;40.25;;;22.00;;
79074;SDS011;68476;42.710;23.388;2023-12-29T05:59:26;34.92;;;19.48;;
79074;SDS011;68476;42.710;23.388;2023-12-29T06:01:52;35.78;;;20.42;;
79074;SDS011;68476;42.710;23.388;2023-12-29T06:04:18;37.55;;;20.33;;
79074;SDS011;68476;42.710;23.388;2023-12-29T06:06:43;38.00;;;21.65;;
79074;SDS011;68476;42.710;23.388;2023-12-29T06:09:09;47.60;;;24.13;;
79074;SDS011;68476;42.710;23.388;2023-12-29T06:11:35;48.83;;;25.80;;
79074;SDS011;68476;42.710;23.388;2023-12-29T06:14:01;49.00;;;22.48;;
79074;SDS011;68476;42.710;23.388;2023-12-29T06:16:27;32.85;;;18.55;;
79074;SDS011;68476;42.710;23.388;2023-12-29T06:18:54;56.45;;;30.88;;
79074;SDS011;68476;42.710;23.388;2023-12-29T06:21:20;44.13;;;26.25;;
79074;SDS011;68476;42.710;23.388;2023-12-29T06:23:46;42.50;;;23.85;;
79074;SDS011;68476;42.710;23.388;2023-12-29T06:26:18;43.65;;;26.25;;
79074;SDS011;68476;42.710;23.388;2023-12-29T06:28:45;40.63;;;22.52;;
79074;SDS011;68476;42.710;23.388;2023-12-29T06:31:12;45.00;;;23.00;;
79074;SDS011;68476;42.710;23.388;2023-12-29T06:33:41;35.67;;;20.67;;
79074;SDS011;68476;42.710;23.388;2023-12-29T06:36:08;37.63;;;21.50;;
79074;SDS011;68476;42.710;23.388;2023-12-29T06:38:34;34.90;;;20.65;;
79074;SDS011;68476;42.710;23.388;2023-12-29T06:41:03;40.67;;;23.02;;
79074;SDS011;68476;42.710;23.388;2023-12-29T06:45:55;40.65;;;21.10;;
79074;SDS011;68476;42.710;23.388;2023-12-29T06:48:20;39.13;;;23.08;;
79074;SDS011;68476;42.710;23.388;2023-12-29T06:50:46;42.83;;;23.40;;
79074;SDS011;68476;42.710;23.388;2023-12-29T06:53:11;42.75;;;21.95;;
79074;SDS011;68476;42.710;23.388;2023-12-29T06:55:37;39.42;;;23.83;;
79074;SDS011;68476;42.710;23.388;2023-12-29T06:58:03;46.13;;;25.42;;
79074;SDS011;68476;42.710;23.388;2023-12-29T07:00:29;40.83;;;23.50;;
79074;SDS011;68476;42.710;23.388;2023-12-29T07:02:54;37.13;;;21.23;;
79074;SDS011;68476;42.710;23.388;2023-12-29T07:05:20;39.53;;;21.67;;
79074;SDS011;68476;42.710;23.388;2023-12-29T07:07:46;38.40;;;22.23;;
79074;SDS011;68476;42.710;23.388;2023-12-29T07:10:12;40.88;;;23.40;;
79074;SDS011;68476;42.710;23.388;2023-12-29T07:12:38;39.17;;;22.73;;
79074;SDS011;68476;42.710;23.388;2023-12-29T07:15:06;37.70;;;22.02;;
79074;SDS011;68476;42.710;23.388;2023-12-29T07:17:31;36.25;;;21.77;;
79074;SDS011;68476;42.710;23.388;2023-12-29T07:19:57;39.78;;;23.42;;
79074;SDS011;68476;42.710;23.388;2023-12-29T07:22:22;41.47;;;25.05;;
79074;SDS011;68476;42.710;23.388;2023-12-29T07:24:48;38.60;;;24.13;;
79074;SDS011;68476;42.710;23.388;2023-12-29T07:27:13;40.72;;;24.27;;
79074;SDS011;68476;42.710;23.388;2023-12-29T07:29:39;36.10;;;22.00;;
79074;SDS011;68476;42.710;23.388;2023-12-29T07:32:04;40.00;;;22.75;;
79074;SDS011;68476;42.710;23.388;2023-12-29T07:34:30;36.05;;;21.88;;
79074;SDS011;68476;42.710;23.388;2023-12-29T07:36:56;37.03;;;22.45;;
79074;SDS011;68476;42.710;23.388;2023-12-29T07:39:23;38.38;;;22.45;;
79074;SDS011;68476;42.710;23.388;2023-12-29T07:41:49;40.83;;;22.55;;
79074;SDS011;68476;42.710;23.388;2023-12-29T07:44:16;43.85;;;24.45;;
79074;SDS011;68476;42.710;23.388;2023-12-29T07:46:42;41.10;;;24.20;;
79074;SDS011;68476;42.710;23.388;2023-12-29T07:49:09;41.63;;;23.98;;
79074;SDS011;68476;42.710;23.388;2023-12-29T07:51:38;43.15;;;25.98;;
79074;SDS011;68476;42.710;23.388;2023-12-29T07:54:05;37.65;;;21.58;;
79074;SDS011;68476;42.710;23.388;2023-12-29T07:56:30;38.22;;;21.73;;
79074;SDS011;68476;42.710;23.388;2023-12-29T07:58:57;40.80;;;23.50;;
79074;SDS011;68476;42.710;23.388;2023-12-29T08:01:22;39.25;;;22.35;;
79074;SDS011;68476;42.710;23.388;2023-12-29T08:03:48;37.75;;;20.73;;
79074;SDS011;68476;42.710;23.388;2023-12-29T08:06:13;34.38;;;20.63;;
79074;SDS011;68476;42.710;23.388;2023-12-29T08:08:39;35.70;;;22.08;;
79074;SDS011;68476;42.710;23.388;2023-12-29T08:11:05;36.90;;;22.40;;
79074;SDS011;68476;42.710;23.388;2023-12-29T08:13:30;32.88;;;20.55;;
79074;SDS011;68476;42.710;23.388;2023-12-29T08:15:56;36.47;;;21.58;;
79074;SDS011;68476;42.710;23.388;2023-12-29T08:18:22;36.40;;;21.67;;
79074;SDS011;68476;42.710;23.388;2023-12-29T08:20:47;37.10;;;20.98;;
79074;SDS011;68476;42.710;23.388;2023-12-29T08:23:13;33.35;;;20.50;;
79074;SDS011;68476;42.710;23.388;2023-12-29T08:25:38;39.35;;;24.95;;
79074;SDS011;68476;42.710;23.388;2023-12-29T08:28:04;37.30;;;23.30;;
79074;SDS011;68476;42.710;23.388;2023-12-29T08:30:30;43.10;;;27.65;;
79074;SDS011;68476;42.710;23.388;2023-12-29T08:32:56;39.17;;;24.52;;
79074;SDS011;68476;42.710;23.388;2023-12-29T08:35:21;45.35;;;24.65;;
79074;SDS011;68476;42.710;23.388;2023-12-29T08:37:47;42.20;;;25.60;;
79074;SDS011;68476;42.710;23.388;2023-12-29T08:40:12;39.85;;;24.10;;
79074;SDS011;68476;42.710;23.388;2023-12-29T08:42:38;42.45;;;24.85;;
79074;SDS011;68476;42.710;23.388;2023-12-29T08:45:03;39.20;;;23.13;;
79074;SDS011;68476;42.710;23.388;2023-12-29T08:47:30;37.50;;;22.98;;
79074;SDS011;68476;42.710;23.388;2023-12-29T08:49:55;41.25;;;24.75;;
79074;SDS011;68476;42.710;23.388;2023-12-29T08:52:20;39.25;;;22.25;;
79074;SDS011;68476;42.710;23.388;2023-12-29T08:54:46;40.70;;;22.15;;
79074;SDS011;68476;42.710;23.388;2023-12-29T08:57:12;37.88;;;21.77;;
79074;SDS011;68476;42.710;23.388;2023-12-29T08:59:38;41.70;;;22.95;;
79074;SDS011;68476;42.710;23.388;2023-12-29T09:02:03;38.78;;;23.15;;
79074;SDS011;68476;42.710;23.388;2023-12-29T09:04:29;40.15;;;24.38;;
79074;SDS011;68476;42.710;23.388;2023-12-29T09:06:54;36.83;;;22.67;;
79074;SDS011;68476;42.710;23.388;2023-12-29T09:09:20;40.25;;;22.55;;
79074;SDS011;68476;42.710;23.388;2023-12-29T09:11:45;37.70;;;24.00;;
79074;SDS011;68476;42.710;23.388;2023-12-29T09:14:12;38.28;;;23.05;;
79074;SDS011;68476;42.710;23.388;2023-12-29T09:16:37;38.05;;;24.45;;
79074;SDS011;68476;42.710;23.388;2023-12-29T09:19:03;37.75;;;24.10;;
79074;SDS011;68476;42.710;23.388;2023-12-29T09:21:28;36.65;;;24.60;;
79074;SDS011;68476;42.710;23.388;2023-12-29T09:23:54;35.33;;;22.73;;
79074;SDS011;68476;42.710;23.388;2023-12-29T09:26:19;38.03;;;24.80;;
79074;SDS011;68476;42.710;23.388;2023-12-29T09:28:45;38.13;;;25.08;;
79074;SDS011;68476;42.710;23.388;2023-12-29T09:31:11;33.28;;;23.77;;
79074;SDS011;68476;42.710;23.388;2023-12-29T09:33:37;36.20;;;24.13;;
79074;SDS011;68476;42.710;23.388;2023-12-29T09:36:03;35.95;;;23.08;;
79074;SDS011;68476;42.710;23.388;2023-12-29T09:38:29;35.45;;;23.65;;
79074;SDS011;68476;42.710;23.388;2023-12-29T09:40:54;37.30;;;25.02;;
79074;SDS011;68476;42.710;23.388;2023-12-29T09:43:27;39.20;;;25.70;;
79074;SDS011;68476;42.710;23.388;2023-12-29T09:45:55;39.45;;;26.40;;
79074;SDS011;68476;42.710;23.388;2023-12-29T09:48:21;37.90;;;26.00;;
79074;SDS011;68476;42.710;23.388;2023-12-29T09:50:51;38.17;;;27.00;;
79074;SDS011;68476;42.710;23.388;2023-12-29T09:53:18;41.40;;;28.42;;
79074;SDS011;68476;42.710;23.388;2023-12-29T09:55:46;41.35;;;27.17;;
79074;SDS011;68476;42.710;23.388;2023-12-29T09:58:13;39.17;;;27.33;;
79074;SDS011;68476;42.710;23.388;2023-12-29T10:00:40;41.63;;;28.35;;
79074;SDS011;68476;42.710;23.388;2023-12-29T10:03:08;44.75;;;29.38;;
79074;SDS011;68476;42.710;23.388;2023-12-29T10:05:34;37.92;;;26.27;;
79074;SDS011;68476;42.710;23.388;2023-12-29T10:08:01;40.20;;;28.58;;
79074;SDS011;68476;42.710;23.388;2023-12-29T10:10:31;40.30;;;26.83;;
79074;SDS011;68476;42.710;23.388;2023-12-29T10:12:59;38.58;;;25.95;;
79074;SDS011;68476;42.710;23.388;2023-12-29T10:20:59;39.92;;;28.52;;
79074;SDS011;68476;42.710;23.388;2023-12-29T10:23:41;38.20;;;27.55;;
79074;SDS011;68476;42.710;23.388;2023-12-29T10:28:38;37.45;;;28.52;;
79074;SDS011;68476;42.710;23.388;2023-12-29T10:31:04;34.72;;;26.75;;
79074;SDS011;68476;42.710;23.388;2023-12-29T10:33:30;34.83;;;26.42;;
79074;SDS011;68476;42.710;23.388;2023-12-29T10:36:01;38.05;;;27.52;;
79074;SDS011;68476;42.710;23.388;2023-12-29T10:38:28;33.83;;;27.02;;
79074;SDS011;68476;42.710;23.388;2023-12-29T10:40:54;38.38;;;27.17;;
79074;SDS011;68476;42.710;23.388;2023-12-29T10:43:36;36.65;;;26.17;;
79074;SDS011;68476;42.710;23.388;2023-12-29T10:46:08;39.20;;;26.98;;
79074;SDS011;68476;42.710;23.388;2023-12-29T10:48:35;33.35;;;25.15;;
79074;SDS011;68476;42.710;23.388;2023-12-29T10:51:02;33.80;;;25.05;;
79074;SDS011;68476;42.710;23.388;2023-12-29T10:53:32;31.35;;;24.75;;
79074;SDS011;68476;42.710;23.388;2023-12-29T10:55:59;34.85;;;25.45;;
79074;SDS011;68476;42.710;23.388;2023-12-29T10:58:28;40.38;;;26.50;;
79074;SDS011;68476;42.710;23.388;2023-12-29T11:00:57;33.08;;;25.08;;
79074;SDS011;68476;42.710;23.388;2023-12-29T11:03:25;30.30;;;24.85;;
79074;SDS011;68476;42.710;23.388;2023-12-29T11:05:51;32.70;;;24.73;;
79074;SDS011;68476;42.710;23.388;2023-12-29T11:08:25;31.38;;;26.33;;
79074;SDS011;68476;42.710;23.388;2023-12-29T11:10:50;32.88;;;25.40;;
79074;SDS011;68476;42.710;23.388;2023-12-29T11:13:16;33.83;;;22.83;;
79074;SDS011;68476;42.710;23.388;2023-12-29T11:15:43;29.65;;;23.20;;
79074;SDS011;68476;42.710;23.388;2023-12-29T11:18:13;26.55;;;21.75;;
79074;SDS011;68476;42.710;23.388;2023-12-29T11:20:41;32.92;;;22.75;;
79074;SDS011;68476;42.710;23.388;2023-12-29T11:23:07;28.60;;;22.58;;
79074;SDS011;68476;42.710;23.388;2023-12-29T11:25:35;30.60;;;22.95;;
79074;SDS011;68476;42.710;23.388;2023-12-29T11:28:01;28.52;;;23.00;;
79074;SDS011;68476;42.710;23.388;2023-12-29T11:30:27;33.95;;;24.02;;
79074;SDS011;68476;42.710;23.388;2023-12-29T11:35:48;33.85;;;25.40;;
79074;SDS011;68476;42.710;23.388;2023-12-29T11:38:23;33.58;;;24.48;;
79074;SDS011;68476;42.710;23.388;2023-12-29T11:41:17;28.33;;;22.52;;
79074;SDS011;68476;42.710;23.388;2023-12-29T11:44:00;29.20;;;22.58;;
79074;SDS011;68476;42.710;23.388;2023-12-29T11:46:39;30.95;;;24.42;;
79074;SDS011;68476;42.710;23.388;2023-12-29T11:49:08;31.95;;;24.92;;
79074;SDS011;68476;42.710;23.388;2023-12-29T11:51:43;33.38;;;25.13;;
79074;SDS011;68476;42.710;23.388;2023-12-29T11:54:09;32.13;;;24.48;;
79074;SDS011;68476;42.710;23.388;2023-12-29T11:56:39;31.52;;;24.17;;
79074;SDS011;68476;42.710;23.388;2023-12-29T11:59:22;32.25;;;23.60;;
79074;SDS011;68476;42.710;23.388;2023-12-29T12:04:33;34.63;;;23.73;;
79074;SDS011;68476;42.710;23.388;2023-12-29T12:07:15;33.65;;;23.73;;
79074;SDS011;68476;42.710;23.388;2023-12-29T12:09:42;28.25;;;21.67;;
79074;SDS011;68476;42.710;23.388;2023-12-29T12:12:07;29.38;;;21.95;;
79074;SDS011;68476;42.710;23.388;2023-12-29T12:14:49;31.13;;;22.55;;
79074;SDS011;68476;42.710;23.388;2023-12-29T12:17:29;28.98;;;20.85;;
79074;SDS011;68476;42.710;23.388;2023-12-29T12:19:57;29.40;;;21.02;;
79074;SDS011;68476;42.710;23.388;2023-12-29T12:22:33;29.10;;;20.65;;
79074;SDS011;68476;42.710;23.388;2023-12-29T12:25:00;30.88;;;20.67;;
79074;SDS011;68476;42.710;23.388;2023-12-29T12:27:27;29.38;;;21.40;;
79074;SDS011;68476;42.710;23.388;2023-12-29T12:29:53;28.70;;;20.60;;
79074;SDS011;68476;42.710;23.388;2023-12-29T12:32:27;26.67;;;20.08;;
79074;SDS011;68476;42.710;23.388;2023-12-29T12:34:54;27.08;;;20.98;;
79074;SDS011;68476;42.710;23.388;2023-12-29T12:37:27;26.65;;;20.92;;
79074;SDS011;68476;42.710;23.388;2023-12-29T12:39:54;28.05;;;20.75;;
79074;SDS011;68476;42.710;23.388;2023-12-29T12:42:20;29.55;;;20.13;;
79074;SDS011;68476;42.710;23.388;2023-12-29T12:44:47;27.58;;;22.02;;
79074;SDS011;68476;42.710;23.388;2023-12-29T12:47:23;27.08;;;21.02;;
79074;SDS011;68476;42.710;23.388;2023-12-29T12:49:58;29.23;;;22.40;;
79074;SDS011;68476;42.710;23.388;2023-12-29T12:52:24;28.63;;;20.50;;
79074;SDS011;68476;42.710;23.388;2023-12-29T12:54:50;29.25;;;20.83;;
79074;SDS011;68476;42.710;23.388;2023-12-29T12:57:20;28.90;;;21.65;;
79074;SDS011;68476;42.710;23.388;2023-12-29T12:59:47;30.73;;;21.67;;
79074;SDS011;68476;42.710;23.388;2023-12-29T13:02:14;29.95;;;21.25;;
79074;SDS011;68476;42.710;23.388;2023-12-29T13:04:43;26.95;;;20.70;;
79074;SDS011;68476;42.710;23.388;2023-12-29T13:09:36;22.90;;;17.98;;
79074;SDS011;68476;42.710;23.388;2023-12-29T13:12:11;25.88;;;18.95;;
79074;SDS011;68476;42.710;23.388;2023-12-29T13:14:38;25.30;;;19.45;;
79074;SDS011;68476;42.710;23.388;2023-12-29T13:17:07;27.27;;;19.48;;
79074;SDS011;68476;42.710;23.388;2023-12-29T13:19:36;28.00;;;19.55;;
79074;SDS011;68476;42.710;23.388;2023-12-29T13:22:15;23.77;;;18.38;;
79074;SDS011;68476;42.710;23.388;2023-12-29T13:24:44;27.95;;;19.67;;
79074;SDS011;68476;42.710;23.388;2023-12-29T13:27:10;26.52;;;19.20;;
79074;SDS011;68476;42.710;23.388;2023-12-29T13:29:37;25.23;;;17.50;;
79074;SDS011;68476;42.710;23.388;2023-12-29T13:40:23;21.70;;;15.38;;
79074;SDS011;68476;42.710;23.388;2023-12-29T13:42:52;21.95;;;14.68;;
79074;SDS011;68476;42.710;23.388;2023-12-29T13:45:22;21.65;;;14.77;;
79074;SDS011;68476;42.710;23.388;2023-12-29T13:47:48;20.58;;;14.80;;
79074;SDS011;68476;42.710;23.388;2023-12-29T13:50:14;25.38;;;15.60;;
79074;SDS011;68476;42.710;23.388;2023-12-29T13:52:39;25.52;;;15.82;;
79074;SDS011;68476;42.710;23.388;2023-12-29T13:55:05;21.50;;;14.98;;
79074;SDS011;68476;42.710;23.388;2023-12-29T13:57:34;22.90;;;16.55;;
79074;SDS011;68476;42.710;23.388;2023-12-29T14:05:26;24.05;;;15.25;;
79074;SDS011;68476;42.710;23.388;2023-12-29T14:08:00;21.33;;;14.32;;
79074;SDS011;68476;42.710;23.388;2023-12-29T14:10:33;26.25;;;14.75;;
79074;SDS011;68476;42.710;23.388;2023-12-29T14:13:06;22.23;;;13.85;;
79074;SDS011;68476;42.710;23.388;2023-12-29T14:15:37;24.60;;;15.73;;
79074;SDS011;68476;42.710;23.388;2023-12-29T14:18:09;22.55;;;15.48;;
79074;SDS011;68476;42.710;23.388;2023-12-29T14:21:01;26.98;;;15.90;;
79074;SDS011;68476;42.710;23.388;2023-12-29T14:23:26;26.80;;;15.50;;
79074;SDS011;68476;42.710;23.388;2023-12-29T14:25:52;23.27;;;15.48;;
79074;SDS011;68476;42.710;23.388;2023-12-29T14:28:18;31.73;;;16.70;;
79074;SDS011;68476;42.710;23.388;2023-12-29T14:30:45;26.73;;;16.85;;
79074;SDS011;68476;42.710;23.388;2023-12-29T14:33:11;29.95;;;17.08;;
79074;SDS011;68476;42.710;23.388;2023-12-29T14:35:37;28.15;;;16.50;;
79074;SDS011;68476;42.710;23.388;2023-12-29T14:38:03;34.05;;;17.73;;
79074;SDS011;68476;42.710;23.388;2023-12-29T14:40:29;32.53;;;17.27;;
79074;SDS011;68476;42.710;23.388;2023-12-29T14:42:55;28.65;;;18.35;;
79074;SDS011;68476;42.710;23.388;2023-12-29T14:45:20;32.85;;;18.55;;